createdAt,value
2017-10-05T00:01:06.240Z,100785.92
2017-10-05T00:03:35.362Z,100791.80
2017-10-05T00:06:04.624Z,100787.53
2017-10-05T00:08:33.380Z,100779.27
2017-10-05T00:11:01.957Z,100762.59
2017-10-05T00:13:30.307Z,100754.70
2017-10-05T00:15:59.163Z,100746.72
2017-10-05T00:18:28.326Z,100749.91
2017-10-05T00:20:56.874Z,100742.49
2017-10-05T00:23:25.601Z,100732.72
2017-10-05T00:25:53.991Z,100732.86
2017-10-05T00:28:22.352Z,100726.25
2017-10-05T00:30:50.975Z,100721.08
2017-10-05T00:33:19.654Z,100720.77
2017-10-05T00:35:49.498Z,100706.94
2017-10-05T00:38:18.611Z,100713.14
2017-10-05T00:40:46.993Z,100716.96
2017-10-05T00:43:17.115Z,100712.80
2017-10-05T00:45:46.304Z,100685.32
2017-10-05T00:48:15.499Z,100685.67
2017-10-05T00:50:43.862Z,100686.34
2017-10-05T00:53:12.290Z,100669.69
2017-10-05T00:55:41.080Z,100674.84
2017-10-05T00:58:09.409Z,100676.63
2017-10-05T01:00:37.762Z,100678.45
2017-10-05T01:03:06.137Z,100689.78
2017-10-05T01:05:34.486Z,100670.99
2017-10-05T01:08:02.909Z,100657.19
2017-10-05T01:10:31.712Z,100644.56
2017-10-05T01:13:00.468Z,100646.26
2017-10-05T01:15:28.830Z,100648.18
2017-10-05T01:17:57.606Z,100636.97
2017-10-05T01:20:25.963Z,100629.70
2017-10-05T01:22:54.311Z,100625.75
2017-10-05T01:25:22.691Z,100639.88
2017-10-05T01:27:51.405Z,100629.60
2017-10-05T01:30:20.514Z,100617.13
2017-10-05T01:32:49.482Z,100618.98
2017-10-05T01:35:18.937Z,100618.53
2017-10-05T01:37:47.539Z,100622.23
2017-10-05T01:40:16.299Z,100613.45
2017-10-05T01:42:44.634Z,100598.40
2017-10-05T01:45:13.009Z,100606.47
2017-10-05T01:47:41.393Z,100592.20
2017-10-05T01:50:09.748Z,100583.56
2017-10-05T01:52:39.019Z,100585.45
2017-10-05T01:55:07.619Z,100576.53
2017-10-05T01:57:36.657Z,100572.13
2017-10-05T02:00:06.299Z,100559.64
2017-10-05T02:02:34.783Z,100551.77
2017-10-05T02:05:03.126Z,100555.56
2017-10-05T02:07:31.473Z,100546.84
2017-10-05T02:09:59.953Z,100552.84
2017-10-05T02:12:28.321Z,100544.05
2017-10-05T02:14:56.739Z,100544.06
2017-10-05T02:17:26.803Z,100540.17
2017-10-05T02:19:55.143Z,100528.11
2017-10-05T02:22:24.253Z,100527.89
2017-10-05T02:24:54.843Z,100520.58
2017-10-05T02:27:23.186Z,100508.63
2017-10-05T02:29:52.331Z,100512.02
2017-10-05T02:32:22.163Z,100503.77
2017-10-05T02:34:50.536Z,100497.45
2017-10-05T02:37:18.890Z,100495.56
2017-10-05T02:39:47.278Z,100492.09
2017-10-05T02:42:16.414Z,100500.11
2017-10-05T02:44:46.329Z,100500.61
2017-10-05T02:47:16.131Z,100496.77
2017-10-05T02:49:45.242Z,100492.94
2017-10-05T02:52:13.595Z,100487.73
2017-10-05T02:54:42.786Z,100483.85
2017-10-05T02:57:12.260Z,100462.02
2017-10-05T02:59:40.607Z,100449.03
2017-10-05T03:02:08.972Z,100443.24
2017-10-05T03:04:38.528Z,100438.83
2017-10-05T03:07:06.869Z,100436.61
2017-10-05T03:09:35.580Z,100426.33
2017-10-05T03:12:03.913Z,100417.92
2017-10-05T03:14:33.040Z,100405.14
2017-10-05T03:17:01.645Z,100406.13
2017-10-05T03:19:30.450Z,100404.70
2017-10-05T03:21:59.425Z,100406.20
2017-10-05T03:24:27.812Z,100410.74
2017-10-05T03:26:56.164Z,100404.87
2017-10-05T03:29:24.503Z,100398.22
2017-10-05T03:31:53.653Z,100383.35
2017-10-05T03:34:22.886Z,100377.33
2017-10-05T03:36:51.249Z,100377.81
2017-10-05T03:39:19.639Z,100375.45
2017-10-05T03:41:48.012Z,100375.07
2017-10-05T03:44:17.270Z,100356.61
2017-10-05T03:46:46.845Z,100346.34
2017-10-05T03:49:15.527Z,100329.05
2017-10-05T03:51:45.206Z,100324.09
2017-10-05T03:54:13.631Z,100321.79
2017-10-05T03:56:43.534Z,100314.17
2017-10-05T03:59:11.883Z,100311.91
2017-10-05T04:01:41.040Z,100306.63
2017-10-05T04:04:09.773Z,100304.41
2017-10-05T04:06:38.178Z,100292.74
2017-10-05T04:09:07.469Z,100288.30
2017-10-05T04:11:35.857Z,100288.14
2017-10-05T04:14:04.202Z,100284.58
2017-10-05T04:16:32.790Z,100290.05
2017-10-05T04:19:01.297Z,100273.24
2017-10-05T04:21:29.642Z,100275.05
2017-10-05T04:23:58.629Z,100270.02
2017-10-05T04:26:27.898Z,100267.73
2017-10-05T04:28:56.238Z,100262.36
2017-10-05T04:31:25.008Z,100262.69
2017-10-05T04:33:53.442Z,100261.00
2017-10-05T04:36:22.548Z,100260.72
2017-10-05T04:38:52.544Z,100259.22
2017-10-05T04:41:20.941Z,100252.55
2017-10-05T04:43:51.392Z,100252.16
2017-10-05T04:46:19.922Z,100235.45
2017-10-05T04:48:49.132Z,100223.31
2017-10-05T04:51:18.525Z,100221.11
2017-10-05T04:53:47.726Z,100209.98
2017-10-05T04:56:16.871Z,100201.77
2017-10-05T04:58:45.919Z,100184.78
2017-10-05T05:01:16.071Z,100181.56
2017-10-05T05:03:45.051Z,100168.48
2017-10-05T05:06:14.185Z,100154.80
2017-10-05T05:08:43.328Z,100152.95
2017-10-05T05:11:11.845Z,100142.83
2017-10-05T05:13:40.977Z,100146.97
2017-10-05T05:16:10.321Z,100123.99
2017-10-05T05:18:40.390Z,100120.19
2017-10-05T05:21:09.775Z,100127.36
2017-10-05T05:23:38.831Z,100116.13
2017-10-05T05:26:07.677Z,100112.32
2017-10-05T05:28:36.373Z,100106.62
2017-10-05T05:31:04.900Z,100097.31
2017-10-05T05:33:34.029Z,100088.20
2017-10-05T05:36:02.873Z,100080.36
2017-10-05T05:38:31.284Z,100081.78
2017-10-05T05:40:59.626Z,100072.55
2017-10-05T05:43:28.149Z,100062.73
2017-10-05T05:45:56.808Z,100060.85
2017-10-05T05:48:25.169Z,100053.39
2017-10-05T05:50:53.571Z,100049.14
2017-10-05T05:53:23.992Z,100043.17
2017-10-05T05:55:52.387Z,100038.14
2017-10-05T05:58:22.190Z,100022.16
2017-10-05T06:00:50.644Z,100018.58
2017-10-05T06:03:20.447Z,100007.38
2017-10-05T06:05:49.049Z,100003.53
2017-10-05T06:08:17.546Z,99996.48
2017-10-05T06:10:46.170Z,99983.31
2017-10-05T06:13:15.265Z,99986.83
2017-10-05T06:15:43.967Z,99976.99
2017-10-05T06:18:13.083Z,99965.20
2017-10-05T06:20:41.431Z,99962.45
2017-10-05T06:23:11.102Z,99947.69
2017-10-05T06:25:39.507Z,99934.31
2017-10-05T06:28:07.863Z,99921.05
2017-10-05T06:30:36.281Z,99917.96
2017-10-05T06:33:04.609Z,99912.19
2017-10-05T06:35:33.655Z,99910.23
2017-10-05T06:38:02.000Z,99891.16
2017-10-05T06:40:31.588Z,99874.86
2017-10-05T06:42:59.922Z,99861.63
2017-10-05T06:45:28.288Z,99851.98
2017-10-05T06:47:56.669Z,99837.12
2017-10-05T06:50:25.020Z,99834.13
2017-10-05T06:52:53.506Z,99821.85
2017-10-05T06:55:21.854Z,99816.83
2017-10-05T06:57:50.412Z,99826.44
2017-10-05T07:00:19.626Z,99823.81
2017-10-05T07:02:48.003Z,99815.20
2017-10-05T07:05:18.935Z,99818.55
2017-10-05T07:07:47.320Z,99807.99
2017-10-05T07:10:16.093Z,99794.67
2017-10-05T07:12:45.986Z,99798.72
2017-10-05T07:15:16.222Z,99787.36
2017-10-05T07:17:44.553Z,99776.18
2017-10-05T07:20:13.680Z,99780.91
2017-10-05T07:22:43.945Z,99770.13
2017-10-05T07:25:13.179Z,99753.84
2017-10-05T07:27:42.159Z,99742.36
2017-10-05T07:30:10.873Z,99729.70
2017-10-05T07:32:39.992Z,99717.55
2017-10-05T07:35:08.971Z,99709.52
2017-10-05T07:37:38.172Z,99703.05
2017-10-05T07:40:07.202Z,99694.43
2017-10-05T07:42:36.233Z,99667.57
2017-10-05T07:45:05.534Z,99668.00
2017-10-05T07:47:34.184Z,99649.59
2017-10-05T07:50:02.562Z,99641.22
2017-10-05T07:52:31.964Z,99634.30
2017-10-05T07:55:01.022Z,99599.60
2017-10-05T07:57:30.132Z,99595.94
2017-10-05T07:59:58.902Z,99597.41
2017-10-05T08:02:28.828Z,99591.11
2017-10-05T08:04:57.164Z,99575.34
2017-10-05T08:07:26.330Z,99561.95
2017-10-05T08:09:54.739Z,99563.53
2017-10-05T08:12:23.606Z,99562.39
2017-10-05T08:14:52.745Z,99538.45
2017-10-05T08:17:21.563Z,99526.09
2017-10-05T08:19:49.937Z,99514.25
2017-10-05T08:22:18.998Z,99499.52
2017-10-05T08:24:47.365Z,99483.01
2017-10-05T08:27:15.772Z,99483.85
2017-10-05T08:29:44.181Z,99490.40
2017-10-05T08:32:13.331Z,99466.30
2017-10-05T08:34:41.683Z,99451.85
2017-10-05T08:37:10.926Z,99445.33
2017-10-05T08:39:39.926Z,99436.13
2017-10-05T08:42:09.220Z,99426.06
2017-10-05T08:44:38.762Z,99412.38
2017-10-05T08:47:07.834Z,99397.05
2017-10-05T08:49:36.195Z,99394.11
2017-10-05T08:52:04.577Z,99363.48
2017-10-05T08:54:32.935Z,99365.31
2017-10-05T08:57:01.954Z,99360.09
2017-10-05T08:59:31.429Z,99351.98
2017-10-05T09:01:59.768Z,99341.76
2017-10-05T09:04:28.527Z,99340.05
2017-10-05T09:06:58.168Z,99323.91
2017-10-05T09:09:26.513Z,99347.66
2017-10-05T09:11:55.460Z,99316.05
2017-10-05T09:14:25.450Z,99305.34
2017-10-05T09:16:53.825Z,99289.20
2017-10-05T09:19:22.939Z,99290.20
2017-10-05T09:21:51.851Z,99270.76
2017-10-05T09:24:20.203Z,99262.27
2017-10-05T09:26:49.355Z,99257.27
2017-10-05T09:29:18.544Z,99251.89
2017-10-05T09:31:47.912Z,99237.10
2017-10-05T09:34:16.976Z,99233.82
2017-10-05T09:36:45.347Z,99214.55
2017-10-05T09:39:14.459Z,99212.48
2017-10-05T09:41:44.909Z,99195.27
2017-10-05T09:44:13.284Z,99178.67
2017-10-05T09:46:41.635Z,99178.25
2017-10-05T09:49:10.006Z,99165.77
2017-10-05T09:51:40.883Z,99149.63
2017-10-05T09:54:09.278Z,99149.00
2017-10-05T09:56:37.847Z,99128.05
2017-10-05T09:59:06.228Z,99151.23
2017-10-05T10:01:34.560Z,99100.53
2017-10-05T10:04:03.153Z,99093.45
2017-10-05T10:06:32.290Z,99088.67
2017-10-05T10:09:01.768Z,99085.78
2017-10-05T10:11:31.143Z,99076.36
2017-10-05T10:13:59.630Z,99066.09
2017-10-05T10:16:28.942Z,99063.96
2017-10-05T10:18:58.807Z,99070.06
2017-10-05T10:21:27.488Z,99058.69
2017-10-05T10:23:57.008Z,99039.23
2017-10-05T10:26:25.853Z,99022.45
2017-10-05T10:28:56.668Z,99019.02
2017-10-05T10:31:25.312Z,99014.33
2017-10-05T10:33:54.474Z,99006.91
2017-10-05T10:36:23.645Z,98975.31
2017-10-05T10:38:51.990Z,98988.62
2017-10-05T10:41:21.100Z,98981.13
2017-10-05T10:43:49.555Z,98969.59
2017-10-05T10:46:18.786Z,98956.69
2017-10-05T10:48:47.123Z,98945.47
2017-10-05T10:51:16.440Z,98927.45
2017-10-05T10:53:44.807Z,98910.80
2017-10-05T10:56:13.137Z,98910.80
2017-10-05T10:58:42.338Z,98914.02
2017-10-05T11:01:11.529Z,98889.16
2017-10-05T11:03:40.665Z,98879.25
2017-10-05T11:06:09.039Z,98889.66
2017-10-05T11:08:37.753Z,98858.08
2017-10-05T11:11:07.432Z,98854.40
2017-10-05T11:13:36.060Z,98821.70
2017-10-05T11:16:04.444Z,98821.76
2017-10-05T11:18:33.012Z,98812.92
2017-10-05T11:21:01.527Z,98805.07
2017-10-05T11:23:31.440Z,98806.25
2017-10-05T11:25:59.773Z,98791.30
2017-10-05T11:28:28.919Z,98793.22
2017-10-05T11:30:57.290Z,98781.69
2017-10-05T11:33:26.248Z,98779.76
2017-10-05T11:35:55.146Z,98776.98
2017-10-05T11:38:24.470Z,98784.34
2017-10-05T11:40:52.842Z,98764.12
2017-10-05T11:43:21.721Z,98768.50
2017-10-05T11:45:50.047Z,98760.97
2017-10-05T11:48:18.405Z,98757.74
2017-10-05T11:50:46.775Z,98756.55
2017-10-05T11:53:16.550Z,98815.91
2017-10-05T11:55:45.907Z,98856.22
2017-10-05T11:58:14.262Z,98848.73
2017-10-05T12:00:42.915Z,98872.31
2017-10-05T12:03:11.915Z,98903.34
2017-10-05T12:05:40.359Z,98968.14
2017-10-05T12:08:09.794Z,98987.42
2017-10-05T12:10:38.581Z,99050.92
2017-10-05T12:13:07.657Z,99112.88
2017-10-05T12:15:37.285Z,99171.73
2017-10-05T12:18:05.662Z,99202.48
2017-10-05T12:20:34.782Z,99230.92
2017-10-05T12:23:03.727Z,99279.44
2017-10-05T12:25:32.837Z,99326.88
2017-10-05T12:28:02.092Z,99376.95
2017-10-05T12:30:30.972Z,99389.74
2017-10-05T12:33:00.707Z,99440.33
2017-10-05T12:35:29.114Z,99458.38
2017-10-05T12:37:58.205Z,99497.66
2017-10-05T12:40:27.701Z,99552.59
2017-10-05T12:42:56.080Z,99578.27
2017-10-05T12:45:24.429Z,99606.19
2017-10-05T12:47:52.780Z,99602.50
2017-10-05T12:50:21.233Z,99664.37
2017-10-05T12:52:49.646Z,99675.44
2017-10-05T12:55:18.008Z,99709.00
2017-10-05T12:57:46.376Z,99721.51
2017-10-05T13:00:15.729Z,99749.61
2017-10-05T13:02:44.074Z,99767.81
2017-10-05T13:05:13.825Z,99780.17
2017-10-05T13:07:43.208Z,99807.42
2017-10-05T13:10:11.542Z,99828.22
2017-10-05T13:12:39.979Z,99834.92
2017-10-05T13:15:08.333Z,99854.45
2017-10-05T13:17:36.672Z,99885.45
2017-10-05T13:20:06.520Z,99893.50
2017-10-05T13:22:34.857Z,99905.37
2017-10-05T13:25:03.325Z,99920.73
2017-10-05T13:27:31.691Z,99917.81
2017-10-05T13:30:00.641Z,99917.30
2017-10-05T13:32:29.678Z,99932.16
2017-10-05T13:34:58.362Z,99951.44
2017-10-05T13:37:27.045Z,99966.31
2017-10-05T13:39:55.393Z,99968.27
2017-10-05T13:42:23.745Z,99983.49
2017-10-05T13:44:53.786Z,99992.10
2017-10-05T13:47:22.346Z,99983.45
2017-10-05T13:49:51.478Z,99995.50
2017-10-05T13:52:19.815Z,100006.51
2017-10-05T13:54:49.365Z,100007.92
2017-10-05T13:57:17.943Z,100007.14
2017-10-05T13:59:47.885Z,100027.55
2017-10-05T14:02:16.223Z,100045.12
2017-10-05T14:04:45.363Z,100047.01
2017-10-05T14:07:13.802Z,100042.10
2017-10-05T14:09:42.181Z,100055.08
2017-10-05T14:12:11.332Z,100070.20
2017-10-05T14:14:40.120Z,100081.75
2017-10-05T14:17:08.459Z,100093.91
2017-10-05T14:19:37.003Z,100099.04
2017-10-05T14:22:05.609Z,100096.95
2017-10-05T14:24:34.005Z,100109.02
2017-10-05T14:27:02.403Z,100113.80
2017-10-05T14:29:30.722Z,100113.66
2017-10-05T14:31:59.879Z,100113.34
2017-10-05T14:34:28.254Z,100121.66
2017-10-05T14:36:56.816Z,100130.47
2017-10-05T14:39:25.173Z,100130.98
2017-10-05T14:41:54.494Z,100137.33
2017-10-05T14:44:22.896Z,100142.30
2017-10-05T14:46:52.231Z,100145.52
2017-10-05T14:49:21.930Z,100130.21
2017-10-05T14:51:50.287Z,100145.32
2017-10-05T14:54:18.616Z,100152.48
2017-10-05T14:56:47.296Z,100155.49
2017-10-05T14:59:15.630Z,100163.94
2017-10-05T15:01:45.325Z,100166.92
2017-10-05T15:04:14.514Z,100180.33
2017-10-05T15:06:43.616Z,100182.69
2017-10-05T15:09:13.172Z,100195.56
2017-10-05T15:11:42.473Z,100188.47
2017-10-05T15:14:11.033Z,100194.05
2017-10-05T15:16:39.863Z,100200.35
2017-10-05T15:19:09.007Z,100212.39
2017-10-05T15:21:37.346Z,100227.36
2017-10-05T15:24:05.694Z,100229.54
2017-10-05T15:26:36.109Z,100232.77
2017-10-05T15:29:05.086Z,100248.71
2017-10-05T15:31:33.660Z,100254.46
2017-10-05T15:34:02.471Z,100252.16
2017-10-05T15:36:31.460Z,100253.86
2017-10-05T15:38:59.849Z,100259.28
2017-10-05T15:41:29.028Z,100258.46
2017-10-05T15:43:58.292Z,100261.91
2017-10-05T15:46:27.439Z,100273.27
2017-10-05T15:48:55.874Z,100273.36
2017-10-05T15:51:24.235Z,100270.84
2017-10-05T15:53:52.884Z,100273.16
2017-10-05T15:56:22.082Z,100275.78
2017-10-05T15:58:50.466Z,100286.50
2017-10-05T16:01:19.249Z,100290.09
2017-10-05T16:03:48.468Z,100292.18
2017-10-05T16:06:17.237Z,100293.23
2017-10-05T16:08:46.302Z,100292.58
2017-10-05T16:11:16.634Z,100298.84
2017-10-05T16:13:44.989Z,100303.67
2017-10-05T16:16:13.877Z,100290.34
2017-10-05T16:18:42.232Z,100295.64
2017-10-05T16:21:11.829Z,100297.17
2017-10-05T16:23:40.335Z,100300.24
2017-10-05T16:26:12.182Z,100311.39
2017-10-05T16:28:40.534Z,100301.05
2017-10-05T16:31:08.950Z,100302.89
2017-10-05T16:33:37.475Z,100321.23
2017-10-05T16:36:07.211Z,100332.42
2017-10-05T16:38:35.715Z,100325.48
2017-10-05T16:41:04.099Z,100339.50
2017-10-05T16:43:32.447Z,100336.38
2017-10-05T16:46:01.457Z,100334.75
2017-10-05T16:48:31.026Z,100337.84
2017-10-05T16:50:59.377Z,100341.05
2017-10-05T16:53:28.552Z,100343.53
2017-10-05T16:55:57.402Z,100342.42
2017-10-05T16:58:26.220Z,100354.58
2017-10-05T17:00:54.558Z,100367.87
2017-10-05T17:03:23.704Z,100384.55
2017-10-05T17:05:52.522Z,100396.45
2017-10-05T17:08:20.872Z,100398.69
2017-10-05T17:10:49.827Z,100403.84
2017-10-05T17:13:19.114Z,100401.41
2017-10-05T17:15:48.229Z,100404.31
2017-10-05T17:18:17.610Z,100413.02
2017-10-05T17:20:46.665Z,100410.25
2017-10-05T17:23:15.528Z,100417.58
2017-10-05T17:25:44.805Z,100421.81
2017-10-05T17:28:13.927Z,100418.73
2017-10-05T17:30:44.561Z,100437.78
2017-10-05T17:33:12.945Z,100435.54
2017-10-05T17:35:41.296Z,100429.41
2017-10-05T17:38:09.667Z,100427.51
2017-10-05T17:40:38.949Z,100430.37
2017-10-05T17:43:08.282Z,100436.55
2017-10-05T17:45:36.628Z,100442.30
2017-10-05T17:48:05.004Z,100454.39
2017-10-05T17:50:34.179Z,100456.64
2017-10-05T17:53:02.554Z,100465.20
2017-10-05T17:55:31.154Z,100469.73
2017-10-05T17:57:59.677Z,100469.69
2017-10-05T18:00:28.023Z,100472.56
2017-10-05T18:02:57.026Z,100474.30
2017-10-05T18:05:26.558Z,100476.12
2017-10-05T18:07:54.903Z,100480.81
2017-10-05T18:10:23.283Z,100477.56
2017-10-05T18:12:51.844Z,100473.88
2017-10-05T18:15:20.250Z,100460.00
2017-10-05T18:17:48.998Z,100471.91
2017-10-05T18:20:17.343Z,100466.94
2017-10-05T18:22:46.625Z,100494.09
2017-10-05T18:25:15.580Z,100503.97
2017-10-05T18:27:44.486Z,100502.34
2017-10-05T18:30:12.842Z,100493.48
2017-10-05T18:32:41.208Z,100488.76
2017-10-05T18:35:10.746Z,100500.50
2017-10-05T18:37:39.848Z,100495.77
2017-10-05T18:40:08.549Z,100493.28
2017-10-05T18:42:38.176Z,100499.61
2017-10-05T18:45:07.636Z,100503.70
2017-10-05T18:47:36.186Z,100500.64
2017-10-05T18:50:05.486Z,100501.30
2017-10-05T18:52:33.845Z,100504.63
2017-10-05T18:55:02.988Z,100512.91
2017-10-05T18:57:31.390Z,100502.79
2017-10-05T18:59:59.751Z,100508.92
2017-10-05T19:02:28.167Z,100508.42
2017-10-05T19:04:56.594Z,100503.09
2017-10-05T19:07:24.941Z,100505.17
2017-10-05T19:09:53.428Z,100514.59
2017-10-05T19:12:22.449Z,100508.59
2017-10-05T19:14:50.793Z,100515.02
2017-10-05T19:17:20.996Z,100508.89
2017-10-05T19:19:49.406Z,100523.25
2017-10-05T19:22:17.761Z,100553.62
2017-10-05T19:24:47.142Z,100558.75
2017-10-05T19:27:15.520Z,100567.71
2017-10-05T19:29:44.553Z,100580.05
2017-10-05T19:32:14.064Z,100575.27
2017-10-05T19:34:42.405Z,100574.09
2017-10-05T19:37:12.449Z,100554.16
2017-10-05T19:39:43.412Z,100545.70
2017-10-05T19:42:11.779Z,100540.90
2017-10-05T19:44:40.912Z,100536.30
2017-10-05T19:47:10.070Z,100542.13
2017-10-05T19:49:39.370Z,100555.11
2017-10-05T19:52:07.936Z,100542.00
2017-10-05T19:54:36.805Z,100551.52
2017-10-05T19:57:05.658Z,100550.82
2017-10-05T19:59:34.028Z,100559.39
2017-10-05T20:02:02.820Z,100549.64
2017-10-05T20:04:32.002Z,100552.92
2017-10-05T20:07:01.855Z,100550.64
2017-10-05T20:09:30.846Z,100553.27
2017-10-05T20:11:59.227Z,100555.23
2017-10-05T20:14:27.587Z,100556.89
2017-10-05T20:17:07.567Z,100551.00
